sensor_id;sensor_type;location;lat;lon;timestamp;temperature;humidity
12948;DHT22;6539;49.476;8.484;2022-11-10T00:00:59;13.60;99.90
12948;DHT22;6539;49.476;8.484;2022-11-10T00:03:36;13.70;99.90
12948;DHT22;6539;49.476;8.484;2022-11-10T00:06:04;13.80;99.90
12948;DHT22;6539;49.476;8.484;2022-11-10T00:08:31;13.70;99.90
12948;DHT22;6539;49.476;8.484;2022-11-10T00:11:05;13.40;99.90
12948;DHT22;6539;49.476;8.484;2022-11-10T00:13:34;13.50;99.90
12948;DHT22;6539;49.476;8.484;2022-11-10T00:16:21;13.70;99.90
12948;DHT22;6539;49.476;8.484;2022-11-10T00:19:06;13.20;99.90
12948;DHT22;6539;49.476;8.484;2022-11-10T00:21:32;13.40;99.90
12948;DHT22;6539;49.476;8.484;2022-11-10T00:23:57;13.40;99.90
12948;DHT22;6539;49.476;8.484;2022-11-10T00:26:28;13.30;99.90
12948;DHT22;6539;49.476;8.484;2022-11-10T00:29:03;13.40;99.90
12948;DHT22;6539;49.476;8.484;2022-11-10T00:31:29;13.30;99.90
12948;DHT22;6539;49.476;8.484;2022-11-10T00:33:57;13.30;99.90
12948;DHT22;6539;49.476;8.484;2022-11-10T00:36:23;13.30;99.90
12948;DHT22;6539;49.476;8.484;2022-11-10T00:38:50;13.30;99.90
12948;DHT22;6539;49.476;8.484;2022-11-10T00:41:18;13.20;99.90
12948;DHT22;6539;49.476;8.484;2022-11-10T00:43:47;13.20;99.90
12948;DHT22;6539;49.476;8.484;2022-11-10T00:46:14;13.00;99.90
12948;DHT22;6539;49.476;8.484;2022-11-10T00:48:40;13.40;99.90
12948;DHT22;6539;49.476;8.484;2022-11-10T00:51:08;13.50;99.90
12948;DHT22;6539;49.476;8.484;2022-11-10T00:53:44;13.30;99.90
12948;DHT22;6539;49.476;8.484;2022-11-10T00:56:10;13.30;99.90
12948;DHT22;6539;49.476;8.484;2022-11-10T00:58:36;13.20;99.90
12948;DHT22;6539;49.476;8.484;2022-11-10T01:01:03;13.10;99.90
12948;DHT22;6539;49.476;8.484;2022-11-10T01:03:30;13.30;99.90
12948;DHT22;6539;49.476;8.484;2022-11-10T01:05:56;13.20;99.90
12948;DHT22;6539;49.476;8.484;2022-11-10T01:08:31;13.10;99.90
12948;DHT22;6539;49.476;8.484;2022-11-10T01:11:23;13.30;99.90
12948;DHT22;6539;49.476;8.484;2022-11-10T01:13:52;13.10;99.90
12948;DHT22;6539;49.476;8.484;2022-11-10T01:16:32;12.70;99.90
12948;DHT22;6539;49.476;8.484;2022-11-10T01:18:59;13.00;99.90
12948;DHT22;6539;49.476;8.484;2022-11-10T01:21:29;13.10;99.90
12948;DHT22;6539;49.476;8.484;2022-11-10T01:23:55;13.00;99.90
12948;DHT22;6539;49.476;8.484;2022-11-10T01:26:22;13.00;99.90
12948;DHT22;6539;49.476;8.484;2022-11-10T01:28:48;13.00;99.90
12948;DHT22;6539;49.476;8.484;2022-11-10T01:31:17;13.30;99.90
12948;DHT22;6539;49.476;8.484;2022-11-10T01:33:46;13.00;99.90
12948;DHT22;6539;49.476;8.484;2022-11-10T01:36:13;13.00;99.90
12948;DHT22;6539;49.476;8.484;2022-11-10T01:38:40;12.70;99.90
12948;DHT22;6539;49.476;8.484;2022-11-10T01:41:11;12.70;99.90
12948;DHT22;6539;49.476;8.484;2022-11-10T01:43:38;13.00;99.90
12948;DHT22;6539;49.476;8.484;2022-11-10T01:46:08;13.00;99.90
12948;DHT22;6539;49.476;8.484;2022-11-10T01:48:58;12.90;99.90
12948;DHT22;6539;49.476;8.484;2022-11-10T01:53:58;12.90;99.90
12948;DHT22;6539;49.476;8.484;2022-11-10T01:56:34;12.50;99.90
12948;DHT22;6539;49.476;8.484;2022-11-10T01:59:08;12.90;99.90
12948;DHT22;6539;49.476;8.484;2022-11-10T02:01:46;12.80;99.90
12948;DHT22;6539;49.476;8.484;2022-11-10T02:04:18;12.60;99.90
12948;DHT22;6539;49.476;8.484;2022-11-10T02:06:48;13.10;99.90
12948;DHT22;6539;49.476;8.484;2022-11-10T02:09:17;12.90;99.90
12948;DHT22;6539;49.476;8.484;2022-11-10T02:11:48;12.70;99.90
12948;DHT22;6539;49.476;8.484;2022-11-10T02:16:45;12.60;99.90
12948;DHT22;6539;49.476;8.484;2022-11-10T02:19:23;12.70;99.90
12948;DHT22;6539;49.476;8.484;2022-11-10T02:21:49;12.50;99.90
12948;DHT22;6539;49.476;8.484;2022-11-10T02:24:20;12.70;99.90
12948;DHT22;6539;49.476;8.484;2022-11-10T02:26:52;13.10;99.90
12948;DHT22;6539;49.476;8.484;2022-11-10T02:29:23;12.90;99.90
12948;DHT22;6539;49.476;8.484;2022-11-10T02:31:50;12.50;99.90
12948;DHT22;6539;49.476;8.484;2022-11-10T02:34:16;12.80;99.90
12948;DHT22;6539;49.476;8.484;2022-11-10T02:36:42;12.70;99.90
12948;DHT22;6539;49.476;8.484;2022-11-10T02:39:08;12.30;99.90
12948;DHT22;6539;49.476;8.484;2022-11-10T02:41:34;12.70;99.90
12948;DHT22;6539;49.476;8.484;2022-11-10T02:44:02;12.20;99.90
12948;DHT22;6539;49.476;8.484;2022-11-10T02:46:30;12.50;99.90
12948;DHT22;6539;49.476;8.484;2022-11-10T02:48:56;12.50;99.90
12948;DHT22;6539;49.476;8.484;2022-11-10T02:51:22;12.30;99.90
12948;DHT22;6539;49.476;8.484;2022-11-10T02:53:48;12.30;99.90
12948;DHT22;6539;49.476;8.484;2022-11-10T02:56:16;12.40;99.90
12948;DHT22;6539;49.476;8.484;2022-11-10T02:58:44;12.00;99.90
12948;DHT22;6539;49.476;8.484;2022-11-10T03:01:09;12.10;99.90
12948;DHT22;6539;49.476;8.484;2022-11-10T03:03:35;12.00;99.90
12948;DHT22;6539;49.476;8.484;2022-11-10T03:06:01;12.00;99.90
12948;DHT22;6539;49.476;8.484;2022-11-10T03:08:29;12.00;99.90
12948;DHT22;6539;49.476;8.484;2022-11-10T03:10:56;12.20;99.90
12948;DHT22;6539;49.476;8.484;2022-11-10T03:13:25;12.10;99.90
12948;DHT22;6539;49.476;8.484;2022-11-10T03:15:51;12.40;99.90
12948;DHT22;6539;49.476;8.484;2022-11-10T03:18:17;12.10;99.90
12948;DHT22;6539;49.476;8.484;2022-11-10T03:20:50;12.10;99.90
12948;DHT22;6539;49.476;8.484;2022-11-10T03:23:16;12.10;99.90
12948;DHT22;6539;49.476;8.484;2022-11-10T03:28:13;11.80;99.90
12948;DHT22;6539;49.476;8.484;2022-11-10T03:30:39;11.90;99.90
12948;DHT22;6539;49.476;8.484;2022-11-10T03:33:08;12.00;99.90
12948;DHT22;6539;49.476;8.484;2022-11-10T03:35:34;12.10;99.90
12948;DHT22;6539;49.476;8.484;2022-11-10T03:38:00;12.10;99.90
12948;DHT22;6539;49.476;8.484;2022-11-10T03:40:26;12.10;99.90
12948;DHT22;6539;49.476;8.484;2022-11-10T03:42:52;12.10;99.90
12948;DHT22;6539;49.476;8.484;2022-11-10T03:45:20;12.10;99.90
12948;DHT22;6539;49.476;8.484;2022-11-10T03:47:49;12.30;99.90
12948;DHT22;6539;49.476;8.484;2022-11-10T03:50:15;12.40;99.90
12948;DHT22;6539;49.476;8.484;2022-11-10T03:52:43;12.10;99.90
12948;DHT22;6539;49.476;8.484;2022-11-10T03:55:11;11.80;99.90
12948;DHT22;6539;49.476;8.484;2022-11-10T03:57:39;12.10;99.90
12948;DHT22;6539;49.476;8.484;2022-11-10T04:00:06;12.10;99.90
12948;DHT22;6539;49.476;8.484;2022-11-10T04:02:36;11.80;99.90
12948;DHT22;6539;49.476;8.484;2022-11-10T04:05:05;11.90;99.90
12948;DHT22;6539;49.476;8.484;2022-11-10T04:08:00;11.60;99.90
12948;DHT22;6539;49.476;8.484;2022-11-10T04:10:44;11.90;99.90
12948;DHT22;6539;49.476;8.484;2022-11-10T04:13:11;11.70;99.90
12948;DHT22;6539;49.476;8.484;2022-11-10T04:15:55;11.60;99.90
12948;DHT22;6539;49.476;8.484;2022-11-10T04:18:21;12.20;99.90
12948;DHT22;6539;49.476;8.484;2022-11-10T04:20:56;11.90;99.90
12948;DHT22;6539;49.476;8.484;2022-11-10T04:23:28;11.80;99.90
12948;DHT22;6539;49.476;8.484;2022-11-10T04:28:48;12.00;99.90
12948;DHT22;6539;49.476;8.484;2022-11-10T04:31:17;11.90;99.90
12948;DHT22;6539;49.476;8.484;2022-11-10T04:33:47;11.50;99.90
12948;DHT22;6539;49.476;8.484;2022-11-10T04:36:23;11.60;99.90
12948;DHT22;6539;49.476;8.484;2022-11-10T04:38:57;12.00;99.90
12948;DHT22;6539;49.476;8.484;2022-11-10T04:41:25;11.80;99.90
12948;DHT22;6539;49.476;8.484;2022-11-10T04:43:52;11.80;99.90
12948;DHT22;6539;49.476;8.484;2022-11-10T04:46:30;11.60;99.90
12948;DHT22;6539;49.476;8.484;2022-11-10T04:48:58;11.90;99.90
12948;DHT22;6539;49.476;8.484;2022-11-10T04:51:27;11.80;99.90
12948;DHT22;6539;49.476;8.484;2022-11-10T04:54:02;11.80;99.90
12948;DHT22;6539;49.476;8.484;2022-11-10T04:56:33;12.10;99.90
12948;DHT22;6539;49.476;8.484;2022-11-10T04:59:00;11.90;99.90
12948;DHT22;6539;49.476;8.484;2022-11-10T05:01:26;11.60;99.90
12948;DHT22;6539;49.476;8.484;2022-11-10T05:03:59;11.60;99.90
12948;DHT22;6539;49.476;8.484;2022-11-10T05:06:28;11.70;99.90
12948;DHT22;6539;49.476;8.484;2022-11-10T05:08:54;11.90;99.90
12948;DHT22;6539;49.476;8.484;2022-11-10T05:11:22;11.70;99.90
12948;DHT22;6539;49.476;8.484;2022-11-10T05:13:50;11.90;99.90
12948;DHT22;6539;49.476;8.484;2022-11-10T05:16:16;11.40;99.90
12948;DHT22;6539;49.476;8.484;2022-11-10T05:18:41;11.70;99.90
12948;DHT22;6539;49.476;8.484;2022-11-10T05:21:08;11.60;99.90
12948;DHT22;6539;49.476;8.484;2022-11-10T05:23:37;11.40;99.90
12948;DHT22;6539;49.476;8.484;2022-11-10T05:26:14;11.00;99.90
12948;DHT22;6539;49.476;8.484;2022-11-10T05:28:44;11.20;99.90
12948;DHT22;6539;49.476;8.484;2022-11-10T05:31:14;11.20;99.90
12948;DHT22;6539;49.476;8.484;2022-11-10T05:33:40;10.90;99.90
12948;DHT22;6539;49.476;8.484;2022-11-10T05:36:09;11.10;99.90
12948;DHT22;6539;49.476;8.484;2022-11-10T05:38:35;11.20;99.90
12948;DHT22;6539;49.476;8.484;2022-11-10T05:41:01;11.20;99.90
12948;DHT22;6539;49.476;8.484;2022-11-10T05:43:26;11.40;99.90
12948;DHT22;6539;49.476;8.484;2022-11-10T05:45:52;11.00;99.90
12948;DHT22;6539;49.476;8.484;2022-11-10T05:48:20;11.20;99.90
12948;DHT22;6539;49.476;8.484;2022-11-10T05:50:46;11.20;99.90
12948;DHT22;6539;49.476;8.484;2022-11-10T05:53:12;11.50;99.90
12948;DHT22;6539;49.476;8.484;2022-11-10T05:55:42;11.00;99.90
12948;DHT22;6539;49.476;8.484;2022-11-10T05:58:08;11.20;99.90
12948;DHT22;6539;49.476;8.484;2022-11-10T06:00:34;11.40;99.90
12948;DHT22;6539;49.476;8.484;2022-11-10T06:03:05;11.30;99.90
12948;DHT22;6539;49.476;8.484;2022-11-10T06:05:39;11.50;99.90
12948;DHT22;6539;49.476;8.484;2022-11-10T06:10:33;11.20;99.90
12948;DHT22;6539;49.476;8.484;2022-11-10T06:12:59;11.30;99.90
12948;DHT22;6539;49.476;8.484;2022-11-10T06:15:26;11.60;99.90
12948;DHT22;6539;49.476;8.484;2022-11-10T06:17:53;11.60;99.90
12948;DHT22;6539;49.476;8.484;2022-11-10T06:20:22;11.40;99.90
12948;DHT22;6539;49.476;8.484;2022-11-10T06:23:08;11.40;99.90
12948;DHT22;6539;49.476;8.484;2022-11-10T06:25:40;11.30;99.90
12948;DHT22;6539;49.476;8.484;2022-11-10T06:28:07;11.60;99.90
12948;DHT22;6539;49.476;8.484;2022-11-10T06:30:35;10.90;99.90
12948;DHT22;6539;49.476;8.484;2022-11-10T06:33:02;11.40;99.90
12948;DHT22;6539;49.476;8.484;2022-11-10T06:35:35;11.50;99.90
12948;DHT22;6539;49.476;8.484;2022-11-10T06:38:05;11.30;99.90
12948;DHT22;6539;49.476;8.484;2022-11-10T06:40:34;11.70;99.90
12948;DHT22;6539;49.476;8.484;2022-11-10T06:43:00;11.30;99.90
12948;DHT22;6539;49.476;8.484;2022-11-10T06:45:28;11.40;99.90
12948;DHT22;6539;49.476;8.484;2022-11-10T06:48:06;11.40;99.90
12948;DHT22;6539;49.476;8.484;2022-11-10T06:53:02;11.60;99.90
12948;DHT22;6539;49.476;8.484;2022-11-10T06:55:28;11.70;99.90
12948;DHT22;6539;49.476;8.484;2022-11-10T06:57:55;11.60;99.90
12948;DHT22;6539;49.476;8.484;2022-11-10T07:00:21;11.40;99.90
12948;DHT22;6539;49.476;8.484;2022-11-10T07:03:05;11.40;99.90
12948;DHT22;6539;49.476;8.484;2022-11-10T07:05:35;11.60;99.90
12948;DHT22;6539;49.476;8.484;2022-11-10T07:08:05;11.30;99.90
12948;DHT22;6539;49.476;8.484;2022-11-10T07:10:49;11.20;99.90
12948;DHT22;6539;49.476;8.484;2022-11-10T07:13:22;11.40;99.90
12948;DHT22;6539;49.476;8.484;2022-11-10T07:15:48;11.60;99.90
12948;DHT22;6539;49.476;8.484;2022-11-10T07:18:14;11.50;99.90
12948;DHT22;6539;49.476;8.484;2022-11-10T07:20:43;11.60;99.90
12948;DHT22;6539;49.476;8.484;2022-11-10T07:23:10;11.60;99.90
12948;DHT22;6539;49.476;8.484;2022-11-10T07:25:38;11.40;99.90
12948;DHT22;6539;49.476;8.484;2022-11-10T07:28:07;11.10;99.90
12948;DHT22;6539;49.476;8.484;2022-11-10T07:30:35;11.40;99.90
12948;DHT22;6539;49.476;8.484;2022-11-10T07:33:12;11.60;99.90
12948;DHT22;6539;49.476;8.484;2022-11-10T07:35:41;11.40;99.90
12948;DHT22;6539;49.476;8.484;2022-11-10T07:38:10;11.70;99.90
12948;DHT22;6539;49.476;8.484;2022-11-10T07:40:37;11.50;99.90
12948;DHT22;6539;49.476;8.484;2022-11-10T07:43:05;11.70;99.90
12948;DHT22;6539;49.476;8.484;2022-11-10T07:45:33;11.40;99.90
12948;DHT22;6539;49.476;8.484;2022-11-10T07:48:05;11.40;99.90
12948;DHT22;6539;49.476;8.484;2022-11-10T07:50:31;11.60;99.90
12948;DHT22;6539;49.476;8.484;2022-11-10T07:53:11;11.90;99.90
12948;DHT22;6539;49.476;8.484;2022-11-10T07:55:40;11.70;99.90
12948;DHT22;6539;49.476;8.484;2022-11-10T07:58:16;11.60;99.90
12948;DHT22;6539;49.476;8.484;2022-11-10T08:00:43;11.60;99.90
12948;DHT22;6539;49.476;8.484;2022-11-10T08:03:20;11.50;99.90
12948;DHT22;6539;49.476;8.484;2022-11-10T08:05:49;11.80;99.90
12948;DHT22;6539;49.476;8.484;2022-11-10T08:08:14;11.60;99.90
12948;DHT22;6539;49.476;8.484;2022-11-10T08:10:43;11.80;99.90
12948;DHT22;6539;49.476;8.484;2022-11-10T08:13:12;11.80;99.90
12948;DHT22;6539;49.476;8.484;2022-11-10T08:15:39;11.90;99.90
12948;DHT22;6539;49.476;8.484;2022-11-10T08:18:19;12.30;99.90
12948;DHT22;6539;49.476;8.484;2022-11-10T08:20:47;11.90;99.90
12948;DHT22;6539;49.476;8.484;2022-11-10T08:23:13;12.30;99.90
12948;DHT22;6539;49.476;8.484;2022-11-10T08:25:40;12.90;99.90
12948;DHT22;6539;49.476;8.484;2022-11-10T08:28:10;12.90;99.90
12948;DHT22;6539;49.476;8.484;2022-11-10T08:30:39;13.30;99.90
12948;DHT22;6539;49.476;8.484;2022-11-10T08:33:07;14.60;99.90
12948;DHT22;6539;49.476;8.484;2022-11-10T08:35:38;15.50;99.90
12948;DHT22;6539;49.476;8.484;2022-11-10T08:38:10;15.50;99.90
12948;DHT22;6539;49.476;8.484;2022-11-10T08:40:40;15.90;99.90
12948;DHT22;6539;49.476;8.484;2022-11-10T08:43:07;15.70;99.90
12948;DHT22;6539;49.476;8.484;2022-11-10T08:45:38;16.00;99.90
12948;DHT22;6539;49.476;8.484;2022-11-10T08:48:10;16.60;99.90
12948;DHT22;6539;49.476;8.484;2022-11-10T08:50:37;17.30;99.90
12948;DHT22;6539;49.476;8.484;2022-11-10T08:53:08;17.60;99.90
12948;DHT22;6539;49.476;8.484;2022-11-10T08:55:36;17.50;99.90
12948;DHT22;6539;49.476;8.484;2022-11-10T08:58:03;17.90;99.90
12948;DHT22;6539;49.476;8.484;2022-11-10T09:00:33;18.00;99.90
12948;DHT22;6539;49.476;8.484;2022-11-10T09:03:21;18.20;99.90
12948;DHT22;6539;49.476;8.484;2022-11-10T09:05:49;18.30;99.90
12948;DHT22;6539;49.476;8.484;2022-11-10T09:08:18;18.50;99.90
12948;DHT22;6539;49.476;8.484;2022-11-10T09:10:49;18.70;99.90
12948;DHT22;6539;49.476;8.484;2022-11-10T09:13:18;18.90;99.90
12948;DHT22;6539;49.476;8.484;2022-11-10T09:15:46;18.60;99.90
12948;DHT22;6539;49.476;8.484;2022-11-10T09:18:15;18.70;99.90
12948;DHT22;6539;49.476;8.484;2022-11-10T09:20:44;18.60;99.90
12948;DHT22;6539;49.476;8.484;2022-11-10T09:23:15;18.90;99.90
12948;DHT22;6539;49.476;8.484;2022-11-10T09:25:48;18.40;99.90
12948;DHT22;6539;49.476;8.484;2022-11-10T09:28:16;18.60;99.90
12948;DHT22;6539;49.476;8.484;2022-11-10T09:30:47;18.50;99.90
12948;DHT22;6539;49.476;8.484;2022-11-10T09:33:15;18.40;99.90
12948;DHT22;6539;49.476;8.484;2022-11-10T09:35:41;18.80;99.90
12948;DHT22;6539;49.476;8.484;2022-11-10T09:38:08;19.20;99.90
12948;DHT22;6539;49.476;8.484;2022-11-10T09:43:03;19.30;99.90
12948;DHT22;6539;49.476;8.484;2022-11-10T09:45:40;19.10;99.90
12948;DHT22;6539;49.476;8.484;2022-11-10T09:48:18;19.10;99.90
12948;DHT22;6539;49.476;8.484;2022-11-10T09:53:50;19.40;99.90
12948;DHT22;6539;49.476;8.484;2022-11-10T09:56:34;19.40;99.90
12948;DHT22;6539;49.476;8.484;2022-11-10T09:59:29;19.50;99.90
12948;DHT22;6539;49.476;8.484;2022-11-10T10:08:11;18.90;99.90
12948;DHT22;6539;49.476;8.484;2022-11-10T10:10:47;19.20;99.90
12948;DHT22;6539;49.476;8.484;2022-11-10T10:17:39;20.90;99.90
12948;DHT22;6539;49.476;8.484;2022-11-10T10:20:15;19.40;99.90
12948;DHT22;6539;49.476;8.484;2022-11-10T10:26:05;18.80;99.90
12948;DHT22;6539;49.476;8.484;2022-11-10T10:28:43;19.00;99.90
12948;DHT22;6539;49.476;8.484;2022-11-10T10:33:47;19.60;99.90
12948;DHT22;6539;49.476;8.484;2022-11-10T10:36:19;19.00;99.90
12948;DHT22;6539;49.476;8.484;2022-11-10T10:39:11;19.30;99.90
12948;DHT22;6539;49.476;8.484;2022-11-10T10:41:45;19.30;99.90
12948;DHT22;6539;49.476;8.484;2022-11-10T10:44:17;19.10;99.90
12948;DHT22;6539;49.476;8.484;2022-11-10T10:47:00;19.40;99.90
12948;DHT22;6539;49.476;8.484;2022-11-10T10:49:30;19.40;99.90
12948;DHT22;6539;49.476;8.484;2022-11-10T10:52:08;19.50;99.90
12948;DHT22;6539;49.476;8.484;2022-11-10T10:54:39;19.80;99.90
12948;DHT22;6539;49.476;8.484;2022-11-10T10:57:27;19.70;99.90
12948;DHT22;6539;49.476;8.484;2022-11-10T11:03:02;19.70;99.90
12948;DHT22;6539;49.476;8.484;2022-11-10T11:05:30;19.70;99.90
12948;DHT22;6539;49.476;8.484;2022-11-10T11:07:59;20.00;99.90
12948;DHT22;6539;49.476;8.484;2022-11-10T11:10:30;20.10;99.90
12948;DHT22;6539;49.476;8.484;2022-11-10T11:13:25;20.20;99.90
12948;DHT22;6539;49.476;8.484;2022-11-10T11:16:02;20.10;99.90
12948;DHT22;6539;49.476;8.484;2022-11-10T11:18:32;20.20;99.90
12948;DHT22;6539;49.476;8.484;2022-11-10T11:21:29;20.10;99.90
12948;DHT22;6539;49.476;8.484;2022-11-10T11:27:25;19.50;99.90
12948;DHT22;6539;49.476;8.484;2022-11-10T11:30:16;19.60;99.90
12948;DHT22;6539;49.476;8.484;2022-11-10T11:39:22;19.10;99.90
12948;DHT22;6539;49.476;8.484;2022-11-10T11:42:38;19.00;99.90
12948;DHT22;6539;49.476;8.484;2022-11-10T11:45:19;18.90;99.90
12948;DHT22;6539;49.476;8.484;2022-11-10T11:50:44;18.40;99.90
12948;DHT22;6539;49.476;8.484;2022-11-10T11:56:27;18.20;99.90
12948;DHT22;6539;49.476;8.484;2022-11-10T11:59:19;18.10;99.90
12948;DHT22;6539;49.476;8.484;2022-11-10T12:02:26;18.00;99.90
12948;DHT22;6539;49.476;8.484;2022-11-10T12:05:36;17.80;99.90
12948;DHT22;6539;49.476;8.484;2022-11-10T12:09:05;17.60;99.90
12948;DHT22;6539;49.476;8.484;2022-11-10T12:26:37;17.30;99.90
12948;DHT22;6539;49.476;8.484;2022-11-10T12:37:57;17.20;99.90
12948;DHT22;6539;49.476;8.484;2022-11-10T12:40:35;17.30;99.90
12948;DHT22;6539;49.476;8.484;2022-11-10T12:43:17;17.40;99.90
12948;DHT22;6539;49.476;8.484;2022-11-10T12:45:57;17.30;99.90
12948;DHT22;6539;49.476;8.484;2022-11-10T12:48:55;17.20;99.90
12948;DHT22;6539;49.476;8.484;2022-11-10T12:52:08;17.20;99.90
12948;DHT22;6539;49.476;8.484;2022-11-10T12:54:37;17.10;99.90
12948;DHT22;6539;49.476;8.484;2022-11-10T12:57:19;17.00;99.90
12948;DHT22;6539;49.476;8.484;2022-11-10T13:02:42;17.10;99.90
12948;DHT22;6539;49.476;8.484;2022-11-10T13:07:42;17.10;99.90
12948;DHT22;6539;49.476;8.484;2022-11-10T13:10:24;16.80;99.90
12948;DHT22;6539;49.476;8.484;2022-11-10T13:18:06;16.70;99.90
12948;DHT22;6539;49.476;8.484;2022-11-10T13:20:47;16.70;99.90
12948;DHT22;6539;49.476;8.484;2022-11-10T13:25:59;16.70;99.90
12948;DHT22;6539;49.476;8.484;2022-11-10T13:36:42;16.50;99.90
12948;DHT22;6539;49.476;8.484;2022-11-10T13:41:45;16.60;99.90
12948;DHT22;6539;49.476;8.484;2022-11-10T13:44:31;17.10;99.90
12948;DHT22;6539;49.476;8.484;2022-11-10T13:58:41;16.50;99.90
12948;DHT22;6539;49.476;8.484;2022-11-10T14:06:18;16.60;99.90
12948;DHT22;6539;49.476;8.484;2022-11-10T14:09:14;16.20;99.90
12948;DHT22;6539;49.476;8.484;2022-11-10T14:11:53;16.60;99.90
12948;DHT22;6539;49.476;8.484;2022-11-10T14:17:31;16.40;99.90
12948;DHT22;6539;49.476;8.484;2022-11-10T14:20:00;16.30;99.90
12948;DHT22;6539;49.476;8.484;2022-11-10T14:22:34;16.40;99.90
12948;DHT22;6539;49.476;8.484;2022-11-10T14:25:23;16.40;99.90
12948;DHT22;6539;49.476;8.484;2022-11-10T14:30:53;16.30;99.90
12948;DHT22;6539;49.476;8.484;2022-11-10T14:33:20;16.50;99.90
12948;DHT22;6539;49.476;8.484;2022-11-10T14:35:55;16.40;99.90
12948;DHT22;6539;49.476;8.484;2022-11-10T14:38:28;16.30;99.90
12948;DHT22;6539;49.476;8.484;2022-11-10T14:41:02;16.20;99.90
12948;DHT22;6539;49.476;8.484;2022-11-10T14:43:35;16.00;99.90
12948;DHT22;6539;49.476;8.484;2022-11-10T14:46:04;16.00;99.90
12948;DHT22;6539;49.476;8.484;2022-11-10T14:48:33;16.20;99.90
12948;DHT22;6539;49.476;8.484;2022-11-10T14:51:13;16.00;99.90
12948;DHT22;6539;49.476;8.484;2022-11-10T14:53:49;16.30;99.90
12948;DHT22;6539;49.476;8.484;2022-11-10T14:56:24;16.20;99.90
12948;DHT22;6539;49.476;8.484;2022-11-10T14:58:53;16.00;99.90
12948;DHT22;6539;49.476;8.484;2022-11-10T15:01:34;16.00;99.90
12948;DHT22;6539;49.476;8.484;2022-11-10T15:04:05;16.00;99.90
12948;DHT22;6539;49.476;8.484;2022-11-10T15:06:37;16.00;99.90
12948;DHT22;6539;49.476;8.484;2022-11-10T15:09:15;16.10;99.90
12948;DHT22;6539;49.476;8.484;2022-11-10T15:14:42;16.10;99.90
12948;DHT22;6539;49.476;8.484;2022-11-10T15:17:15;15.70;99.90
12948;DHT22;6539;49.476;8.484;2022-11-10T15:24:50;15.80;99.90
12948;DHT22;6539;49.476;8.484;2022-11-10T15:27:28;15.60;99.90
12948;DHT22;6539;49.476;8.484;2022-11-10T15:29:59;15.50;99.90
12948;DHT22;6539;49.476;8.484;2022-11-10T15:32:41;15.80;99.90
12948;DHT22;6539;49.476;8.484;2022-11-10T15:35:20;15.70;99.90
12948;DHT22;6539;49.476;8.484;2022-11-10T15:37:58;15.40;99.90
12948;DHT22;6539;49.476;8.484;2022-11-10T15:40:48;15.30;99.90
12948;DHT22;6539;49.476;8.484;2022-11-10T15:45:45;15.50;99.90
12948;DHT22;6539;49.476;8.484;2022-11-10T15:48:17;15.70;99.90
12948;DHT22;6539;49.476;8.484;2022-11-10T15:50:49;15.30;99.90
12948;DHT22;6539;49.476;8.484;2022-11-10T15:56:12;15.10;99.90
12948;DHT22;6539;49.476;8.484;2022-11-10T15:58:49;15.40;99.90
12948;DHT22;6539;49.476;8.484;2022-11-10T16:01:19;15.50;99.90
12948;DHT22;6539;49.476;8.484;2022-11-10T16:03:45;15.30;99.90
12948;DHT22;6539;49.476;8.484;2022-11-10T16:06:13;15.70;99.90
12948;DHT22;6539;49.476;8.484;2022-11-10T16:08:40;15.60;99.90
12948;DHT22;6539;49.476;8.484;2022-11-10T16:11:16;15.70;99.90
12948;DHT22;6539;49.476;8.484;2022-11-10T16:13:44;15.40;99.90
12948;DHT22;6539;49.476;8.484;2022-11-10T16:16:14;15.10;99.90
12948;DHT22;6539;49.476;8.484;2022-11-10T16:18:44;15.40;99.90
12948;DHT22;6539;49.476;8.484;2022-11-10T16:21:14;15.40;99.90
12948;DHT22;6539;49.476;8.484;2022-11-10T16:23:42;15.20;99.90
12948;DHT22;6539;49.476;8.484;2022-11-10T16:26:15;14.90;99.90
12948;DHT22;6539;49.476;8.484;2022-11-10T16:28:44;15.20;99.90
12948;DHT22;6539;49.476;8.484;2022-11-10T16:31:13;14.70;99.90
12948;DHT22;6539;49.476;8.484;2022-11-10T16:33:40;15.10;99.90
12948;DHT22;6539;49.476;8.484;2022-11-10T16:36:16;15.00;99.90
12948;DHT22;6539;49.476;8.484;2022-11-10T16:39:00;15.00;99.90
12948;DHT22;6539;49.476;8.484;2022-11-10T16:41:27;14.80;99.90
12948;DHT22;6539;49.476;8.484;2022-11-10T16:43:55;15.00;99.90
12948;DHT22;6539;49.476;8.484;2022-11-10T16:46:22;14.80;99.90
12948;DHT22;6539;49.476;8.484;2022-11-10T16:48:52;15.30;99.90
12948;DHT22;6539;49.476;8.484;2022-11-10T16:51:39;14.70;99.90
12948;DHT22;6539;49.476;8.484;2022-11-10T16:54:08;15.20;99.90
12948;DHT22;6539;49.476;8.484;2022-11-10T16:56:35;15.20;99.90
12948;DHT22;6539;49.476;8.484;2022-11-10T16:59:03;14.60;99.90
12948;DHT22;6539;49.476;8.484;2022-11-10T17:01:33;14.70;99.90
12948;DHT22;6539;49.476;8.484;2022-11-10T17:04:07;15.10;99.90
12948;DHT22;6539;49.476;8.484;2022-11-10T17:06:38;14.40;99.90
12948;DHT22;6539;49.476;8.484;2022-11-10T17:09:21;14.70;99.90
12948;DHT22;6539;49.476;8.484;2022-11-10T17:11:50;14.70;99.90
12948;DHT22;6539;49.476;8.484;2022-11-10T17:14:18;14.80;99.90
12948;DHT22;6539;49.476;8.484;2022-11-10T17:16:45;14.90;99.90
12948;DHT22;6539;49.476;8.484;2022-11-10T17:19:17;14.30;99.90
12948;DHT22;6539;49.476;8.484;2022-11-10T17:21:48;14.70;99.90
12948;DHT22;6539;49.476;8.484;2022-11-10T17:24:16;14.70;99.90
12948;DHT22;6539;49.476;8.484;2022-11-10T17:26:43;14.60;99.90
12948;DHT22;6539;49.476;8.484;2022-11-10T17:29:19;14.20;99.90
12948;DHT22;6539;49.476;8.484;2022-11-10T17:31:46;14.60;99.90
12948;DHT22;6539;49.476;8.484;2022-11-10T17:34:14;14.10;99.90
12948;DHT22;6539;49.476;8.484;2022-11-10T17:36:40;14.50;99.90
12948;DHT22;6539;49.476;8.484;2022-11-10T17:39:12;14.10;99.90
12948;DHT22;6539;49.476;8.484;2022-11-10T17:41:39;14.30;99.90
12948;DHT22;6539;49.476;8.484;2022-11-10T17:44:13;14.10;99.90
12948;DHT22;6539;49.476;8.484;2022-11-10T17:46:44;14.50;99.90
12948;DHT22;6539;49.476;8.484;2022-11-10T17:49:10;14.10;99.90
12948;DHT22;6539;49.476;8.484;2022-11-10T17:51:36;14.40;99.90
12948;DHT22;6539;49.476;8.484;2022-11-10T17:54:07;14.30;99.90
12948;DHT22;6539;49.476;8.484;2022-11-10T17:56:37;14.00;99.90
12948;DHT22;6539;49.476;8.484;2022-11-10T17:59:06;14.00;99.90
12948;DHT22;6539;49.476;8.484;2022-11-10T18:04:03;14.50;99.90
12948;DHT22;6539;49.476;8.484;2022-11-10T18:06:31;14.00;99.90
12948;DHT22;6539;49.476;8.484;2022-11-10T18:09:02;14.00;99.90
12948;DHT22;6539;49.476;8.484;2022-11-10T18:11:28;14.20;99.90
12948;DHT22;6539;49.476;8.484;2022-11-10T18:13:54;14.10;99.90
12948;DHT22;6539;49.476;8.484;2022-11-10T18:16:22;14.00;99.90
12948;DHT22;6539;49.476;8.484;2022-11-10T18:18:50;13.90;99.90
12948;DHT22;6539;49.476;8.484;2022-11-10T18:21:15;13.90;99.90
12948;DHT22;6539;49.476;8.484;2022-11-10T18:23:42;13.70;99.90
12948;DHT22;6539;49.476;8.484;2022-11-10T18:26:08;13.80;99.90
12948;DHT22;6539;49.476;8.484;2022-11-10T18:28:37;13.90;99.90
12948;DHT22;6539;49.476;8.484;2022-11-10T18:31:08;13.90;99.90
12948;DHT22;6539;49.476;8.484;2022-11-10T18:33:35;13.90;99.90
12948;DHT22;6539;49.476;8.484;2022-11-10T18:36:03;13.90;99.90